sensor_id;sensor_type;location;lat;lon;timestamp;P1;durP1;ratioP1;P2;durP2;ratioP2
79499;SDS011;76397;53.172;18.140;2024-03-23T00:55:41;14.60;;;2.40;;
79499;SDS011;76397;53.172;18.140;2024-03-23T00:58:08;12.20;;;2.40;;
79499;SDS011;76397;53.172;18.140;2024-03-23T01:00:35;16.50;;;2.30;;
79499;SDS011;76397;53.172;18.140;2024-03-23T01:03:02;12.50;;;2.50;;
79499;SDS011;76397;53.172;18.140;2024-03-23T01:05:28;12.70;;;2.10;;
79499;SDS011;76397;53.172;18.140;2024-03-23T01:07:55;11.90;;;1.90;;
79499;SDS011;76397;53.172;18.140;2024-03-23T01:10:22;10.90;;;2.10;;
79499;SDS011;76397;53.172;18.140;2024-03-23T01:12:49;14.50;;;2.30;;
79499;SDS011;76397;53.172;18.140;2024-03-23T01:15:16;16.50;;;3.30;;
79499;SDS011;76397;53.172;18.140;2024-03-23T01:17:42;14.20;;;2.50;;
79499;SDS011;76397;53.172;18.140;2024-03-23T01:20:09;11.00;;;1.90;;
79499;SDS011;76397;53.172;18.140;2024-03-23T01:22:36;11.40;;;2.20;;
79499;SDS011;76397;53.172;18.140;2024-03-23T01:25:03;12.30;;;2.60;;
79499;SDS011;76397;53.172;18.140;2024-03-23T01:27:30;15.30;;;2.10;;
79499;SDS011;76397;53.172;18.140;2024-03-23T01:29:57;13.60;;;2.50;;
79499;SDS011;76397;53.172;18.140;2024-03-23T01:32:23;21.50;;;3.00;;
79499;SDS011;76397;53.172;18.140;2024-03-23T01:34:50;9.90;;;2.10;;
79499;SDS011;76397;53.172;18.140;2024-03-23T01:37:16;17.80;;;3.10;;
79499;SDS011;76397;53.172;18.140;2024-03-23T01:39:43;17.30;;;2.80;;
79499;SDS011;76397;53.172;18.140;2024-03-23T01:42:10;14.00;;;2.40;;
79499;SDS011;76397;53.172;18.140;2024-03-23T01:44:36;13.00;;;2.70;;
79499;SDS011;76397;53.172;18.140;2024-03-23T01:47:06;14.60;;;2.60;;
79499;SDS011;76397;53.172;18.140;2024-03-23T01:49:33;15.10;;;2.70;;
79499;SDS011;76397;53.172;18.140;2024-03-23T01:52:01;10.70;;;2.50;;
79499;SDS011;76397;53.172;18.140;2024-03-23T01:54:29;18.20;;;3.00;;
79499;SDS011;76397;53.172;18.140;2024-03-23T01:56:56;15.20;;;2.90;;
79499;SDS011;76397;53.172;18.140;2024-03-23T01:59:23;12.70;;;2.70;;
79499;SDS011;76397;53.172;18.140;2024-03-23T02:01:50;14.70;;;3.00;;
79499;SDS011;76397;53.172;18.140;2024-03-23T02:04:17;15.90;;;3.20;;
79499;SDS011;76397;53.172;18.140;2024-03-23T02:06:44;14.60;;;3.10;;
79499;SDS011;76397;53.172;18.140;2024-03-23T02:09:11;15.80;;;3.00;;
79499;SDS011;76397;53.172;18.140;2024-03-23T02:11:38;12.10;;;2.60;;
79499;SDS011;76397;53.172;18.140;2024-03-23T02:14:05;14.90;;;3.20;;
79499;SDS011;76397;53.172;18.140;2024-03-23T02:16:32;13.20;;;2.60;;
79499;SDS011;76397;53.172;18.140;2024-03-23T02:18:59;12.40;;;2.90;;
79499;SDS011;76397;53.172;18.140;2024-03-23T02:21:25;13.60;;;2.70;;
79499;SDS011;76397;53.172;18.140;2024-03-23T02:23:54;17.20;;;2.80;;
79499;SDS011;76397;53.172;18.140;2024-03-23T02:26:20;18.60;;;2.80;;
79499;SDS011;76397;53.172;18.140;2024-03-23T02:28:47;11.40;;;2.60;;
79499;SDS011;76397;53.172;18.140;2024-03-23T02:31:13;18.30;;;2.80;;
79499;SDS011;76397;53.172;18.140;2024-03-23T02:33:41;14.00;;;2.60;;
79499;SDS011;76397;53.172;18.140;2024-03-23T02:36:08;11.20;;;2.40;;
79499;SDS011;76397;53.172;18.140;2024-03-23T02:38:35;10.80;;;2.30;;
79499;SDS011;76397;53.172;18.140;2024-03-23T02:41:05;13.00;;;2.60;;
79499;SDS011;76397;53.172;18.140;2024-03-23T02:43:32;14.10;;;2.70;;
79499;SDS011;76397;53.172;18.140;2024-03-23T02:45:58;15.00;;;3.40;;
79499;SDS011;76397;53.172;18.140;2024-03-23T02:48:25;13.10;;;2.50;;
79499;SDS011;76397;53.172;18.140;2024-03-23T02:50:52;11.40;;;2.20;;
79499;SDS011;76397;53.172;18.140;2024-03-23T02:53:20;14.10;;;2.50;;
79499;SDS011;76397;53.172;18.140;2024-03-23T02:55:48;13.20;;;2.80;;
79499;SDS011;76397;53.172;18.140;2024-03-23T02:58:14;14.50;;;2.60;;
79499;SDS011;76397;53.172;18.140;2024-03-23T03:00:41;12.30;;;2.60;;
79499;SDS011;76397;53.172;18.140;2024-03-23T03:03:08;10.50;;;2.50;;
79499;SDS011;76397;53.172;18.140;2024-03-23T03:05:35;13.20;;;3.20;;
79499;SDS011;76397;53.172;18.140;2024-03-23T03:08:02;13.70;;;2.70;;
79499;SDS011;76397;53.172;18.140;2024-03-23T03:10:29;11.90;;;2.40;;
79499;SDS011;76397;53.172;18.140;2024-03-23T03:12:57;9.10;;;2.50;;
79499;SDS011;76397;53.172;18.140;2024-03-23T03:15:23;10.80;;;2.90;;
79499;SDS011;76397;53.172;18.140;2024-03-23T03:17:50;13.50;;;3.20;;
79499;SDS011;76397;53.172;18.140;2024-03-23T03:20:16;12.10;;;2.60;;
79499;SDS011;76397;53.172;18.140;2024-03-23T03:22:44;12.30;;;2.50;;
79499;SDS011;76397;53.172;18.140;2024-03-23T03:25:10;12.60;;;2.50;;
79499;SDS011;76397;53.172;18.140;2024-03-23T03:27:37;12.10;;;2.60;;
79499;SDS011;76397;53.172;18.140;2024-03-23T03:30:05;9.90;;;2.60;;
79499;SDS011;76397;53.172;18.140;2024-03-23T03:32:32;11.10;;;2.70;;
79499;SDS011;76397;53.172;18.140;2024-03-23T03:34:59;17.30;;;3.40;;
79499;SDS011;76397;53.172;18.140;2024-03-23T03:37:25;8.70;;;2.20;;
79499;SDS011;76397;53.172;18.140;2024-03-23T03:39:52;9.20;;;2.20;;
79499;SDS011;76397;53.172;18.140;2024-03-23T03:42:19;14.60;;;2.70;;
79499;SDS011;76397;53.172;18.140;2024-03-23T03:44:45;13.30;;;2.60;;
79499;SDS011;76397;53.172;18.140;2024-03-23T03:47:12;9.30;;;2.30;;
79499;SDS011;76397;53.172;18.140;2024-03-23T03:49:39;10.20;;;2.80;;
79499;SDS011;76397;53.172;18.140;2024-03-23T03:52:05;9.40;;;2.60;;
79499;SDS011;76397;53.172;18.140;2024-03-23T03:54:33;8.90;;;2.60;;
79499;SDS011;76397;53.172;18.140;2024-03-23T03:56:59;6.70;;;1.90;;
79499;SDS011;76397;53.172;18.140;2024-03-23T03:59:26;9.00;;;2.40;;
79499;SDS011;76397;53.172;18.140;2024-03-23T04:01:53;9.70;;;2.50;;
79499;SDS011;76397;53.172;18.140;2024-03-23T04:04:19;8.60;;;2.20;;
79499;SDS011;76397;53.172;18.140;2024-03-23T04:06:46;8.20;;;2.40;;
79499;SDS011;76397;53.172;18.140;2024-03-23T04:09:13;10.20;;;2.50;;
79499;SDS011;76397;53.172;18.140;2024-03-23T04:11:41;10.60;;;2.20;;
79499;SDS011;76397;53.172;18.140;2024-03-23T04:14:08;10.80;;;3.70;;
79499;SDS011;76397;53.172;18.140;2024-03-23T04:16:35;11.10;;;3.60;;
79499;SDS011;76397;53.172;18.140;2024-03-23T04:19:02;9.40;;;2.90;;
79499;SDS011;76397;53.172;18.140;2024-03-23T04:21:29;10.70;;;3.20;;
79499;SDS011;76397;53.172;18.140;2024-03-23T04:23:55;11.80;;;3.40;;
79499;SDS011;76397;53.172;18.140;2024-03-23T04:26:22;8.80;;;2.90;;
79499;SDS011;76397;53.172;18.140;2024-03-23T04:28:49;11.80;;;3.90;;
79499;SDS011;76397;53.172;18.140;2024-03-23T04:31:15;9.60;;;2.90;;
79499;SDS011;76397;53.172;18.140;2024-03-23T04:33:42;12.90;;;3.80;;
79499;SDS011;76397;53.172;18.140;2024-03-23T04:36:08;11.50;;;3.50;;
79499;SDS011;76397;53.172;18.140;2024-03-23T04:38:36;5.90;;;2.40;;
79499;SDS011;76397;53.172;18.140;2024-03-23T04:41:03;9.30;;;3.00;;
79499;SDS011;76397;53.172;18.140;2024-03-23T04:43:29;9.60;;;2.60;;
79499;SDS011;76397;53.172;18.140;2024-03-23T04:45:56;11.20;;;2.70;;
79499;SDS011;76397;53.172;18.140;2024-03-23T04:48:23;9.00;;;3.00;;
79499;SDS011;76397;53.172;18.140;2024-03-23T04:50:54;11.10;;;2.40;;
79499;SDS011;76397;53.172;18.140;2024-03-23T04:53:24;9.30;;;2.60;;
79499;SDS011;76397;53.172;18.140;2024-03-23T04:55:56;10.00;;;2.50;;
79499;SDS011;76397;53.172;18.140;2024-03-23T04:58:23;11.40;;;3.40;;
79499;SDS011;76397;53.172;18.140;2024-03-23T05:00:56;12.90;;;3.40;;
79499;SDS011;76397;53.172;18.140;2024-03-23T05:03:24;12.80;;;3.50;;
79499;SDS011;76397;53.172;18.140;2024-03-23T05:05:50;13.00;;;3.20;;
79499;SDS011;76397;53.172;18.140;2024-03-23T05:08:17;12.70;;;3.30;;
79499;SDS011;76397;53.172;18.140;2024-03-23T05:10:44;19.70;;;4.50;;
79499;SDS011;76397;53.172;18.140;2024-03-23T05:13:11;14.00;;;2.50;;
79499;SDS011;76397;53.172;18.140;2024-03-23T05:15:38;11.20;;;2.70;;
79499;SDS011;76397;53.172;18.140;2024-03-23T05:18:05;10.90;;;3.00;;
79499;SDS011;76397;53.172;18.140;2024-03-23T05:20:32;9.70;;;3.00;;
79499;SDS011;76397;53.172;18.140;2024-03-23T05:22:59;14.60;;;3.10;;
79499;SDS011;76397;53.172;18.140;2024-03-23T05:25:26;13.90;;;3.00;;
79499;SDS011;76397;53.172;18.140;2024-03-23T05:27:53;12.00;;;2.90;;
79499;SDS011;76397;53.172;18.140;2024-03-23T05:30:19;15.00;;;2.90;;
79499;SDS011;76397;53.172;18.140;2024-03-23T05:32:46;12.80;;;2.80;;
79499;SDS011;76397;53.172;18.140;2024-03-23T05:35:12;11.90;;;2.40;;
79499;SDS011;76397;53.172;18.140;2024-03-23T05:37:39;14.20;;;3.00;;
79499;SDS011;76397;53.172;18.140;2024-03-23T05:40:06;10.50;;;2.90;;
79499;SDS011;76397;53.172;18.140;2024-03-23T05:42:35;9.90;;;2.90;;
79499;SDS011;76397;53.172;18.140;2024-03-23T05:45:02;14.90;;;3.40;;
79499;SDS011;76397;53.172;18.140;2024-03-23T05:47:32;15.10;;;2.70;;
79499;SDS011;76397;53.172;18.140;2024-03-23T05:49:59;16.50;;;3.20;;
79499;SDS011;76397;53.172;18.140;2024-03-23T05:52:26;12.30;;;3.10;;
79499;SDS011;76397;53.172;18.140;2024-03-23T05:54:53;13.30;;;2.90;;
79499;SDS011;76397;53.172;18.140;2024-03-23T05:57:20;10.60;;;2.30;;
79499;SDS011;76397;53.172;18.140;2024-03-23T05:59:47;12.40;;;2.70;;
79499;SDS011;76397;53.172;18.140;2024-03-23T06:02:13;12.90;;;2.70;;
79499;SDS011;76397;53.172;18.140;2024-03-23T06:04:40;10.60;;;2.30;;
79499;SDS011;76397;53.172;18.140;2024-03-23T06:07:07;11.80;;;2.70;;
79499;SDS011;76397;53.172;18.140;2024-03-23T06:09:42;10.50;;;2.70;;
79499;SDS011;76397;53.172;18.140;2024-03-23T06:12:09;14.10;;;3.20;;
79499;SDS011;76397;53.172;18.140;2024-03-23T06:14:36;11.10;;;2.60;;
79499;SDS011;76397;53.172;18.140;2024-03-23T06:17:02;12.70;;;3.20;;
79499;SDS011;76397;53.172;18.140;2024-03-23T06:19:29;14.10;;;2.90;;
79499;SDS011;76397;53.172;18.140;2024-03-23T06:21:56;13.80;;;3.10;;
79499;SDS011;76397;53.172;18.140;2024-03-23T06:24:23;10.70;;;2.10;;
79499;SDS011;76397;53.172;18.140;2024-03-23T06:26:50;11.00;;;2.50;;
79499;SDS011;76397;53.172;18.140;2024-03-23T06:29:17;14.70;;;2.90;;
79499;SDS011;76397;53.172;18.140;2024-03-23T06:31:44;11.40;;;2.90;;
79499;SDS011;76397;53.172;18.140;2024-03-23T06:34:18;12.40;;;2.40;;
79499;SDS011;76397;53.172;18.140;2024-03-23T06:36:46;12.70;;;2.90;;
79499;SDS011;76397;53.172;18.140;2024-03-23T06:39:13;12.90;;;2.30;;
79499;SDS011;76397;53.172;18.140;2024-03-23T06:41:42;10.00;;;2.50;;
79499;SDS011;76397;53.172;18.140;2024-03-23T06:44:09;12.80;;;2.60;;
79499;SDS011;76397;53.172;18.140;2024-03-23T06:46:36;8.70;;;2.30;;
79499;SDS011;76397;53.172;18.140;2024-03-23T06:49:02;16.60;;;2.70;;
79499;SDS011;76397;53.172;18.140;2024-03-23T06:51:29;12.60;;;2.40;;
79499;SDS011;76397;53.172;18.140;2024-03-23T06:53:56;14.20;;;2.00;;
79499;SDS011;76397;53.172;18.140;2024-03-23T06:56:22;9.70;;;2.10;;
79499;SDS011;76397;53.172;18.140;2024-03-23T06:58:49;10.70;;;2.90;;
79499;SDS011;76397;53.172;18.140;2024-03-23T07:01:16;14.60;;;2.90;;
79499;SDS011;76397;53.172;18.140;2024-03-23T07:03:42;11.70;;;3.10;;
79499;SDS011;76397;53.172;18.140;2024-03-23T07:06:10;14.70;;;3.50;;
79499;SDS011;76397;53.172;18.140;2024-03-23T07:08:37;12.30;;;3.40;;
79499;SDS011;76397;53.172;18.140;2024-03-23T07:11:03;10.80;;;2.40;;
79499;SDS011;76397;53.172;18.140;2024-03-23T07:13:31;11.80;;;2.60;;
79499;SDS011;76397;53.172;18.140;2024-03-23T07:15:57;15.40;;;3.00;;
79499;SDS011;76397;53.172;18.140;2024-03-23T07:18:26;10.70;;;2.40;;
79499;SDS011;76397;53.172;18.140;2024-03-23T07:20:57;12.60;;;3.30;;
79499;SDS011;76397;53.172;18.140;2024-03-23T07:23:24;11.30;;;2.50;;
79499;SDS011;76397;53.172;18.140;2024-03-23T07:26:02;8.50;;;2.00;;
79499;SDS011;76397;53.172;18.140;2024-03-23T07:28:34;8.30;;;1.80;;
79499;SDS011;76397;53.172;18.140;2024-03-23T07:31:13;12.40;;;2.40;;
79499;SDS011;76397;53.172;18.140;2024-03-23T07:33:45;11.10;;;2.40;;
79499;SDS011;76397;53.172;18.140;2024-03-23T07:36:13;10.80;;;2.50;;
79499;SDS011;76397;53.172;18.140;2024-03-23T07:38:41;13.10;;;2.50;;
79499;SDS011;76397;53.172;18.140;2024-03-23T07:41:10;12.10;;;2.40;;
79499;SDS011;76397;53.172;18.140;2024-03-23T07:43:38;14.60;;;2.20;;
79499;SDS011;76397;53.172;18.140;2024-03-23T07:46:05;16.60;;;2.70;;
79499;SDS011;76397;53.172;18.140;2024-03-23T07:48:33;9.50;;;2.00;;
79499;SDS011;76397;53.172;18.140;2024-03-23T07:51:07;10.20;;;1.80;;
79499;SDS011;76397;53.172;18.140;2024-03-23T07:53:36;13.30;;;2.40;;
79499;SDS011;76397;53.172;18.140;2024-03-23T07:56:06;10.90;;;1.70;;
79499;SDS011;76397;53.172;18.140;2024-03-23T07:58:34;11.30;;;2.10;;
79499;SDS011;76397;53.172;18.140;2024-03-23T08:01:06;13.70;;;2.00;;
79499;SDS011;76397;53.172;18.140;2024-03-23T08:03:36;12.60;;;2.30;;
79499;SDS011;76397;53.172;18.140;2024-03-23T08:06:17;10.20;;;1.80;;
79499;SDS011;76397;53.172;18.140;2024-03-23T08:08:48;9.60;;;2.40;;
79499;SDS011;76397;53.172;18.140;2024-03-23T08:11:30;9.60;;;1.80;;
79499;SDS011;76397;53.172;18.140;2024-03-23T08:13:58;10.10;;;1.80;;
79499;SDS011;76397;53.172;18.140;2024-03-23T08:16:25;10.10;;;1.30;;
79499;SDS011;76397;53.172;18.140;2024-03-23T08:18:52;9.50;;;1.50;;
79499;SDS011;76397;53.172;18.140;2024-03-23T08:21:19;17.90;;;1.90;;
79499;SDS011;76397;53.172;18.140;2024-03-23T08:23:46;7.90;;;1.60;;
79499;SDS011;76397;53.172;18.140;2024-03-23T08:26:14;16.20;;;1.90;;
79499;SDS011;76397;53.172;18.140;2024-03-23T08:28:42;15.30;;;2.20;;
79499;SDS011;76397;53.172;18.140;2024-03-23T08:31:09;14.00;;;1.70;;
79499;SDS011;76397;53.172;18.140;2024-03-23T08:33:37;10.00;;;2.20;;
79499;SDS011;76397;53.172;18.140;2024-03-23T08:36:09;12.00;;;1.70;;
79499;SDS011;76397;53.172;18.140;2024-03-23T08:38:38;9.30;;;1.30;;
79499;SDS011;76397;53.172;18.140;2024-03-23T08:41:09;11.10;;;1.80;;
79499;SDS011;76397;53.172;18.140;2024-03-23T08:43:41;9.90;;;1.50;;
79499;SDS011;76397;53.172;18.140;2024-03-23T08:46:09;12.90;;;2.40;;
79499;SDS011;76397;53.172;18.140;2024-03-23T08:48:44;9.30;;;1.90;;
79499;SDS011;76397;53.172;18.140;2024-03-23T08:51:14;8.80;;;1.90;;
79499;SDS011;76397;53.172;18.140;2024-03-23T08:53:42;7.90;;;1.60;;
79499;SDS011;76397;53.172;18.140;2024-03-23T08:56:10;7.80;;;1.80;;
79499;SDS011;76397;53.172;18.140;2024-03-23T08:58:38;9.70;;;2.50;;
79499;SDS011;76397;53.172;18.140;2024-03-23T09:01:11;8.90;;;2.10;;
79499;SDS011;76397;53.172;18.140;2024-03-23T09:03:42;8.50;;;1.60;;
79499;SDS011;76397;53.172;18.140;2024-03-23T09:06:10;10.90;;;1.90;;
79499;SDS011;76397;53.172;18.140;2024-03-23T09:08:39;6.80;;;1.70;;
79499;SDS011;76397;53.172;18.140;2024-03-23T09:11:09;11.70;;;2.50;;
79499;SDS011;76397;53.172;18.140;2024-03-23T09:13:37;8.20;;;1.50;;
79499;SDS011;76397;53.172;18.140;2024-03-23T09:16:06;7.60;;;1.60;;
79499;SDS011;76397;53.172;18.140;2024-03-23T09:18:34;10.70;;;1.50;;
79499;SDS011;76397;53.172;18.140;2024-03-23T09:21:03;6.60;;;1.50;;
79499;SDS011;76397;53.172;18.140;2024-03-23T09:23:30;5.00;;;0.90;;
79499;SDS011;76397;53.172;18.140;2024-03-23T09:25:57;9.10;;;1.50;;
79499;SDS011;76397;53.172;18.140;2024-03-23T09:28:24;6.70;;;1.50;;
79499;SDS011;76397;53.172;18.140;2024-03-23T09:30:50;5.40;;;0.90;;
79499;SDS011;76397;53.172;18.140;2024-03-23T09:33:17;7.70;;;1.00;;
79499;SDS011;76397;53.172;18.140;2024-03-23T09:35:44;7.80;;;0.90;;
79499;SDS011;76397;53.172;18.140;2024-03-23T09:38:11;5.90;;;1.00;;
79499;SDS011;76397;53.172;18.140;2024-03-23T09:40:41;3.20;;;0.70;;
79499;SDS011;76397;53.172;18.140;2024-03-23T09:43:09;6.70;;;1.20;;
79499;SDS011;76397;53.172;18.140;2024-03-23T09:45:39;4.40;;;1.10;;
79499;SDS011;76397;53.172;18.140;2024-03-23T09:48:10;6.60;;;1.10;;
79499;SDS011;76397;53.172;18.140;2024-03-23T09:50:44;4.30;;;1.10;;
79499;SDS011;76397;53.172;18.140;2024-03-23T09:53:13;3.20;;;1.10;;
79499;SDS011;76397;53.172;18.140;2024-03-23T09:55:41;4.90;;;1.00;;
79499;SDS011;76397;53.172;18.140;2024-03-23T09:58:12;5.10;;;0.80;;
79499;SDS011;76397;53.172;18.140;2024-03-23T10:00:40;4.00;;;0.60;;
79499;SDS011;76397;53.172;18.140;2024-03-23T10:03:07;5.40;;;1.50;;
79499;SDS011;76397;53.172;18.140;2024-03-23T10:05:35;4.90;;;1.30;;
79499;SDS011;76397;53.172;18.140;2024-03-23T10:08:19;7.00;;;1.10;;
79499;SDS011;76397;53.172;18.140;2024-03-23T10:10:46;5.00;;;1.40;;
79499;SDS011;76397;53.172;18.140;2024-03-23T10:13:26;6.50;;;1.60;;
79499;SDS011;76397;53.172;18.140;2024-03-23T10:15:59;6.10;;;0.90;;
79499;SDS011;76397;53.172;18.140;2024-03-23T10:18:26;5.80;;;0.90;;
79499;SDS011;76397;53.172;18.140;2024-03-23T10:21:09;6.30;;;1.80;;
79499;SDS011;76397;53.172;18.140;2024-03-23T10:23:38;5.70;;;1.00;;
79499;SDS011;76397;53.172;18.140;2024-03-23T10:26:20;4.80;;;1.10;;
79499;SDS011;76397;53.172;18.140;2024-03-23T10:31:20;9.40;;;2.10;;
79499;SDS011;76397;53.172;18.140;2024-03-23T10:33:48;4.60;;;0.60;;
79499;SDS011;76397;53.172;18.140;2024-03-23T10:36:16;6.40;;;1.30;;
79499;SDS011;76397;53.172;18.140;2024-03-23T10:38:44;3.60;;;0.80;;
79499;SDS011;76397;53.172;18.140;2024-03-23T10:41:11;7.30;;;1.30;;
79499;SDS011;76397;53.172;18.140;2024-03-23T10:43:39;3.50;;;0.70;;
79499;SDS011;76397;53.172;18.140;2024-03-23T10:46:06;5.40;;;1.10;;
79499;SDS011;76397;53.172;18.140;2024-03-23T10:48:32;5.50;;;1.10;;
79499;SDS011;76397;53.172;18.140;2024-03-23T10:50:59;7.10;;;1.00;;
79499;SDS011;76397;53.172;18.140;2024-03-23T10:53:27;4.70;;;1.10;;
79499;SDS011;76397;53.172;18.140;2024-03-23T10:55:55;6.00;;;1.40;;
79499;SDS011;76397;53.172;18.140;2024-03-23T10:58:30;10.00;;;1.40;;
79499;SDS011;76397;53.172;18.140;2024-03-23T11:01:00;5.30;;;1.50;;
79499;SDS011;76397;53.172;18.140;2024-03-23T11:03:30;7.80;;;1.30;;
79499;SDS011;76397;53.172;18.140;2024-03-23T11:05:59;6.80;;;1.40;;
79499;SDS011;76397;53.172;18.140;2024-03-23T11:08:31;6.80;;;1.40;;
79499;SDS011;76397;53.172;18.140;2024-03-23T11:11:33;6.70;;;1.40;;
79499;SDS011;76397;53.172;18.140;2024-03-23T11:14:12;9.20;;;1.40;;
79499;SDS011;76397;53.172;18.140;2024-03-23T11:17:08;9.20;;;1.30;;
79499;SDS011;76397;53.172;18.140;2024-03-23T11:19:37;9.00;;;1.30;;
79499;SDS011;76397;53.172;18.140;2024-03-23T11:22:04;9.00;;;1.60;;
79499;SDS011;76397;53.172;18.140;2024-03-23T11:24:32;7.30;;;1.70;;
79499;SDS011;76397;53.172;18.140;2024-03-23T11:27:00;7.40;;;1.20;;
79499;SDS011;76397;53.172;18.140;2024-03-23T11:29:30;5.60;;;1.30;;
79499;SDS011;76397;53.172;18.140;2024-03-23T11:31:57;6.40;;;1.50;;
79499;SDS011;76397;53.172;18.140;2024-03-23T11:34:25;8.60;;;1.70;;
79499;SDS011;76397;53.172;18.140;2024-03-23T11:37:03;9.50;;;1.70;;
79499;SDS011;76397;53.172;18.140;2024-03-23T11:39:31;5.30;;;0.80;;
79499;SDS011;76397;53.172;18.140;2024-03-23T11:41:58;10.70;;;0.90;;
79499;SDS011;76397;53.172;18.140;2024-03-23T11:44:26;6.80;;;1.50;;
79499;SDS011;76397;53.172;18.140;2024-03-23T11:46:53;6.80;;;1.90;;
79499;SDS011;76397;53.172;18.140;2024-03-23T11:49:29;7.60;;;1.30;;
79499;SDS011;76397;53.172;18.140;2024-03-23T11:51:56;9.20;;;1.70;;
79499;SDS011;76397;53.172;18.140;2024-03-23T11:54:24;6.00;;;1.40;;
79499;SDS011;76397;53.172;18.140;2024-03-23T11:59:39;7.00;;;1.70;;
79499;SDS011;76397;53.172;18.140;2024-03-23T12:02:11;9.20;;;2.30;;
79499;SDS011;76397;53.172;18.140;2024-03-23T12:04:41;7.80;;;1.90;;
79499;SDS011;76397;53.172;18.140;2024-03-23T12:07:12;7.60;;;2.00;;
79499;SDS011;76397;53.172;18.140;2024-03-23T12:10:03;7.70;;;2.10;;
79499;SDS011;76397;53.172;18.140;2024-03-23T12:12:31;8.70;;;3.10;;
79499;SDS011;76397;53.172;18.140;2024-03-23T12:15:04;13.30;;;3.10;;
79499;SDS011;76397;53.172;18.140;2024-03-23T12:17:32;12.10;;;3.00;;
79499;SDS011;76397;53.172;18.140;2024-03-23T12:19:59;7.70;;;2.80;;
79499;SDS011;76397;53.172;18.140;2024-03-23T12:22:25;13.20;;;3.20;;
79499;SDS011;76397;53.172;18.140;2024-03-23T12:24:53;9.40;;;2.50;;
79499;SDS011;76397;53.172;18.140;2024-03-23T12:27:19;9.30;;;2.50;;
79499;SDS011;76397;53.172;18.140;2024-03-23T12:29:46;8.30;;;2.50;;
79499;SDS011;76397;53.172;18.140;2024-03-23T12:32:13;8.40;;;2.10;;
79499;SDS011;76397;53.172;18.140;2024-03-23T12:34:41;11.50;;;2.20;;
79499;SDS011;76397;53.172;18.140;2024-03-23T12:37:08;8.80;;;2.20;;
79499;SDS011;76397;53.172;18.140;2024-03-23T12:39:39;10.20;;;2.20;;
79499;SDS011;76397;53.172;18.140;2024-03-23T12:42:05;6.30;;;1.40;;
79499;SDS011;76397;53.172;18.140;2024-03-23T12:44:32;4.60;;;1.40;;
79499;SDS011;76397;53.172;18.140;2024-03-23T12:46:59;7.00;;;1.60;;
79499;SDS011;76397;53.172;18.140;2024-03-23T12:49:26;7.70;;;1.40;;
79499;SDS011;76397;53.172;18.140;2024-03-23T12:51:56;6.60;;;1.50;;
79499;SDS011;76397;53.172;18.140;2024-03-23T12:54:23;7.20;;;1.50;;
79499;SDS011;76397;53.172;18.140;2024-03-23T12:56:50;5.10;;;1.00;;
79499;SDS011;76397;53.172;18.140;2024-03-23T12:59:17;9.50;;;2.60;;
79499;SDS011;76397;53.172;18.140;2024-03-23T13:01:45;8.20;;;2.60;;
79499;SDS011;76397;53.172;18.140;2024-03-23T13:04:12;6.60;;;2.10;;
79499;SDS011;76397;53.172;18.140;2024-03-23T13:06:38;8.20;;;2.60;;
79499;SDS011;76397;53.172;18.140;2024-03-23T13:09:05;6.10;;;1.80;;
79499;SDS011;76397;53.172;18.140;2024-03-23T13:11:32;5.00;;;1.50;;
79499;SDS011;76397;53.172;18.140;2024-03-23T13:13:58;11.30;;;2.30;;
79499;SDS011;76397;53.172;18.140;2024-03-23T13:16:26;11.40;;;3.30;;
79499;SDS011;76397;53.172;18.140;2024-03-23T13:18:52;9.30;;;3.10;;
79499;SDS011;76397;53.172;18.140;2024-03-23T13:21:19;8.30;;;3.50;;
79499;SDS011;76397;53.172;18.140;2024-03-23T13:23:48;9.50;;;2.70;;
79499;SDS011;76397;53.172;18.140;2024-03-23T13:26:16;7.30;;;2.90;;
79499;SDS011;76397;53.172;18.140;2024-03-23T13:28:43;9.60;;;2.80;;
79499;SDS011;76397;53.172;18.140;2024-03-23T13:31:11;4.70;;;1.70;;
79499;SDS011;76397;53.172;18.140;2024-03-23T13:33:37;7.60;;;2.30;;
79499;SDS011;76397;53.172;18.140;2024-03-23T13:36:04;6.30;;;2.00;;
79499;SDS011;76397;53.172;18.140;2024-03-23T13:38:31;4.00;;;1.30;;
79499;SDS011;76397;53.172;18.140;2024-03-23T13:40:59;6.60;;;1.60;;
79499;SDS011;76397;53.172;18.140;2024-03-23T13:43:27;3.70;;;1.00;;
79499;SDS011;76397;53.172;18.140;2024-03-23T13:45:58;4.80;;;1.30;;
79499;SDS011;76397;53.172;18.140;2024-03-23T13:48:27;6.80;;;1.30;;
79499;SDS011;76397;53.172;18.140;2024-03-23T13:51:05;3.90;;;0.80;;
79499;SDS011;76397;53.172;18.140;2024-03-23T13:53:31;4.70;;;0.90;;
79499;SDS011;76397;53.172;18.140;2024-03-23T13:56:01;4.50;;;1.00;;
79499;SDS011;76397;53.172;18.140;2024-03-23T13:58:27;3.10;;;0.70;;
79499;SDS011;76397;53.172;18.140;2024-03-23T14:00:57;7.20;;;1.00;;
79499;SDS011;76397;53.172;18.140;2024-03-23T14:03:24;4.90;;;0.50;;
79499;SDS011;76397;53.172;18.140;2024-03-23T14:05:51;4.50;;;0.90;;
79499;SDS011;76397;53.172;18.140;2024-03-23T14:08:19;4.40;;;1.00;;
79499;SDS011;76397;53.172;18.140;2024-03-23T14:10:48;5.60;;;0.90;;
79499;SDS011;76397;53.172;18.140;2024-03-23T14:13:15;7.10;;;1.50;;
79499;SDS011;76397;53.172;18.140;2024-03-23T14:15:41;7.70;;;1.30;;
79499;SDS011;76397;53.172;18.140;2024-03-23T14:18:08;3.90;;;0.80;;
79499;SDS011;76397;53.172;18.140;2024-03-23T14:20:35;5.50;;;0.90;;
79499;SDS011;76397;53.172;18.140;2024-03-23T14:23:02;3.40;;;0.70;;
79499;SDS011;76397;53.172;18.140;2024-03-23T14:25:29;3.80;;;1.20;;
79499;SDS011;76397;53.172;18.140;2024-03-23T14:27:56;4.20;;;1.10;;
79499;SDS011;76397;53.172;18.140;2024-03-23T14:30:24;3.80;;;0.70;;
79499;SDS011;76397;53.172;18.140;2024-03-23T14:32:51;6.20;;;0.90;;
79499;SDS011;76397;53.172;18.140;2024-03-23T14:35:17;4.90;;;1.00;;
79499;SDS011;76397;53.172;18.140;2024-03-23T14:37:44;6.10;;;1.50;;
79499;SDS011;76397;53.172;18.140;2024-03-23T14:40:13;5.30;;;1.40;;
79499;SDS011;76397;53.172;18.140;2024-03-23T14:42:40;5.00;;;1.10;;
79499;SDS011;76397;53.172;18.140;2024-03-23T14:45:08;5.50;;;1.60;;
79499;SDS011;76397;53.172;18.140;2024-03-23T14:47:35;5.70;;;1.40;;
79499;SDS011;76397;53.172;18.140;2024-03-23T14:50:01;3.10;;;0.70;;
79499;SDS011;76397;53.172;18.140;2024-03-23T14:52:29;3.90;;;0.40;;
79499;SDS011;76397;53.172;18.140;2024-03-23T14:54:56;5.20;;;0.60;;
79499;SDS011;76397;53.172;18.140;2024-03-23T14:57:23;3.10;;;0.70;;
79499;SDS011;76397;53.172;18.140;2024-03-23T14:59:49;4.60;;;0.90;;
79499;SDS011;76397;53.172;18.140;2024-03-23T15:02:16;2.80;;;0.70;;
79499;SDS011;76397;53.172;18.140;2024-03-23T15:04:43;3.50;;;0.60;;
79499;SDS011;76397;53.172;18.140;2024-03-23T15:07:09;4.80;;;0.90;;
79499;SDS011;76397;53.172;18.140;2024-03-23T15:09:36;4.20;;;1.40;;
79499;SDS011;76397;53.172;18.140;2024-03-23T15:12:03;5.50;;;1.10;;
79499;SDS011;76397;53.172;18.140;2024-03-23T15:14:30;5.10;;;1.20;;
79499;SDS011;76397;53.172;18.140;2024-03-23T15:16:56;4.00;;;1.10;;
79499;SDS011;76397;53.172;18.140;2024-03-23T15:19:23;4.20;;;0.80;;
79499;SDS011;76397;53.172;18.140;2024-03-23T15:21:50;5.40;;;0.70;;
79499;SDS011;76397;53.172;18.140;2024-03-23T15:24:17;5.80;;;0.90;;
79499;SDS011;76397;53.172;18.140;2024-03-23T15:26:44;4.60;;;0.80;;
79499;SDS011;76397;53.172;18.140;2024-03-23T15:29:10;5.30;;;1.00;;
79499;SDS011;76397;53.172;18.140;2024-03-23T15:31:38;6.00;;;1.30;;
79499;SDS011;76397;53.172;18.140;2024-03-23T15:34:05;4.30;;;0.80;;